Time;durP1;ratioP1;P1;durP2;ratioP2;P2;SDS_P1;SDS_P2;PMS_P1;PMS_P2;Temp;Humidity;BMP_temperature;BMP_pressure;BME280_temperature;BME280_humidity;BME280_pressure;Samples;Min_cycle;Max_cycle;Signal;HPM_P1;HPM_P2
2022/10/28 00:01:13;;;;;;;5.40;3.60;;;16.70;67.10;;;;;;5023216;28;20462;-79
2022/10/28 00:03:43;;;;;;;6.97;3.23;;;16.70;1.00;;;;;;5022385;28;20515;-79
2022/10/28 00:06:14;;;;;;;4.70;3.00;;;16.80;50.40;;;;;;5023336;28;20626;-79
2022/10/28 00:08:42;;;;;;;7.57;3.40;;;16.90;1.00;;;;;;5020949;28;20575;-80
2022/10/28 00:11:12;;;;;;;4.93;3.77;;;17.00;1.00;;;;;;5023762;28;20887;-80
2022/10/28 00:13:42;;;;;;;7.90;3.73;;;16.80;99.90;;;;;;5027836;28;20577;-80
2022/10/28 00:16:13;;;;;;;6.57;3.30;;;16.80;1.00;;;;;;5022354;28;20489;-79
2022/10/28 00:18:41;;;;;;;4.43;3.50;;;16.90;1.00;;;;;;5026666;28;20854;-80
2022/10/28 00:21:13;;;;;;;5.03;3.70;;;16.90;99.90;;;;;;5020594;28;20451;-79
2022/10/28 00:23:42;;;;;;;5.57;3.00;;;16.80;99.90;;;;;;5023310;28;20521;-79
2022/10/28 00:26:11;;;;;;;6.80;3.43;;;16.60;99.90;;;;;;5018230;28;20507;-79
2022/10/28 00:28:46;;;;;;;5.17;3.83;;;16.60;1.00;;;;;;5024045;28;20444;-79
2022/10/28 00:31:16;;;;;;;3.97;3.67;;;16.70;99.90;;;;;;5023864;28;20447;-80
2022/10/28 00:33:45;;;;;;;5.63;4.20;;;16.60;99.90;;;;;;5024923;28;20962;-79
2022/10/28 00:36:15;;;;;;;5.13;4.10;;;16.60;1.00;;;;;;5022200;28;21154;-79
2022/10/28 00:38:45;;;;;;;6.60;3.77;;;16.60;1.00;;;;;;5024574;28;20458;-79
2022/10/28 00:41:15;;;;;;;6.93;3.90;;;16.50;1.00;;;;;;5022032;28;20483;-79
2022/10/28 00:43:46;;;;;;;5.20;3.70;;;16.50;1.00;;;;;;5018454;28;20515;-79
2022/10/28 00:46:19;;;;;;;4.40;4.10;;;16.40;99.90;;;;;;5024081;28;20489;-79
2022/10/28 00:48:52;;;;;;;5.53;3.23;;;16.30;1.00;;;;;;5025461;28;20491;-79
2022/10/28 00:51:22;;;;;;;5.83;3.37;;;16.30;27.20;;;;;;5024321;28;20558;-79
2022/10/28 00:53:51;;;;;;;5.70;3.30;;;16.30;99.90;;;;;;5021558;28;21302;-80
2022/10/28 00:56:20;;;;;;;4.33;3.77;;;16.20;1.00;;;;;;5021596;28;20551;-80
2022/10/28 00:58:51;;;;;;;4.60;3.60;;;16.20;99.90;;;;;;5024997;28;20458;-78
2022/10/28 01:01:19;;;;;;;6.13;3.67;;;16.20;99.90;;;;;;5025291;28;20553;-79
2022/10/28 01:03:48;;;;;;;7.23;4.83;;;16.10;1.00;;;;;;5022956;28;21002;-80
2022/10/28 01:06:16;;;;;;;6.27;3.30;;;16.20;99.90;;;;;;5020662;28;20486;-80
2022/10/28 01:08:44;;;;;;;4.90;3.73;;;16.20;1.00;;;;;;5024190;28;20964;-80
2022/10/28 01:11:35;;;;;;;5.53;3.83;;;16.30;99.90;;;;;;5023868;28;20463;-80
2022/10/28 01:14:18;;;;;;;4.20;3.80;;;16.20;99.90;;;;;;5020735;28;20556;-80
2022/10/28 01:17:00;;;;;;;8.40;3.90;;;16.30;99.90;;;;;;5020588;28;20482;-80
2022/10/28 01:20:03;;;;;;;11.50;4.73;;;16.30;99.90;;;;;;5026095;28;20522;-80
2022/10/28 01:22:36;;;;;;;5.57;3.67;;;16.30;99.90;;;;;;5024607;28;20588;-80
2022/10/28 01:25:35;;;;;;;5.03;3.63;;;16.30;1.00;;;;;;5024688;28;20459;-79
2022/10/28 01:28:25;;;;;;;5.90;3.90;;;16.20;1.00;;;;;;5022742;28;20592;-80
2022/10/28 01:31:13;;;;;;;6.93;4.03;;;16.10;1.00;;;;;;5021415;28;20463;-80
2022/10/28 01:33:47;;;;;;;5.33;4.13;;;16.10;1.00;;;;;;5021589;28;21021;-80
2022/10/28 01:36:20;;;;;;;10.73;4.07;;;16.30;99.90;;;;;;5024930;28;20509;-81
2022/10/28 01:38:51;;;;;;;5.73;3.87;;;16.20;99.90;;;;;;5020548;28;21386;-80
2022/10/28 01:41:28;;;;;;;6.00;3.70;;;16.30;32.70;;;;;;5016275;28;20534;-79
2022/10/28 01:44:01;;;;;;;4.43;3.50;;;16.40;1.00;;;;;;5025003;28;20577;-79
2022/10/28 01:46:37;;;;;;;5.60;3.80;;;16.40;1.00;;;;;;5021711;28;20490;-79
2022/10/28 01:49:11;;;;;;;6.43;4.27;;;16.40;99.90;;;;;;5023356;28;20512;-80
2022/10/28 01:51:44;;;;;;;7.43;4.07;;;16.40;99.90;;;;;;5024550;28;20955;-80
2022/10/28 01:54:16;;;;;;;11.83;5.07;;;16.20;1.00;;;;;;5022730;28;21346;-80
2022/10/28 01:56:47;;;;;;;7.83;5.17;;;16.10;99.90;;;;;;5023029;28;20498;-79
2022/10/28 01:59:17;;;;;;;6.03;5.43;;;16.10;1.00;;;;;;5024841;28;20500;-79
2022/10/28 02:01:47;;;;;;;8.47;4.47;;;16.00;99.90;;;;;;5024366;28;20486;-80
2022/10/28 02:04:15;;;;;;;5.93;5.00;;;16.00;99.90;;;;;;5020613;28;20541;-79
2022/10/28 02:06:47;;;;;;;7.90;4.57;;;16.00;1.00;;;;;;5023578;28;20941;-80
2022/10/28 02:09:27;;;;;;;6.60;4.50;;;16.00;99.90;;;;;;5022234;28;20874;-80
2022/10/28 02:12:30;;;;;;;4.80;3.93;;;15.90;99.90;;;;;;5021706;28;20569;-80
2022/10/28 02:15:17;;;;;;;6.13;4.33;;;15.90;1.00;;;;;;5018875;28;20489;-79
2022/10/28 02:17:56;;;;;;;7.63;4.33;;;15.80;80.90;;;;;;5021252;28;20454;-80
2022/10/28 02:20:34;;;;;;;9.20;4.53;;;15.80;6.70;;;;;;5017938;28;20490;-80
2022/10/28 02:23:11;;;;;;;6.60;4.30;;;15.70;99.90;;;;;;5020441;28;20636;-79
2022/10/28 02:25:45;;;;;;;5.73;4.30;;;15.70;99.90;;;;;;5034319;28;20568;-79
2022/10/28 02:28:19;;;;;;;6.43;4.50;;;15.80;1.00;;;;;;5017889;28;20513;-79
2022/10/28 02:30:53;;;;;;;8.03;4.90;;;15.70;99.90;;;;;;5022615;28;20595;-79
2022/10/28 02:33:28;;;;;;;8.90;4.50;;;15.60;99.90;;;;;;5019835;28;20600;-79
2022/10/28 02:36:02;;;;;;;5.87;4.27;;;15.70;37.20;;;;;;5024647;28;20513;-80
2022/10/28 02:38:34;;;;;;;4.80;3.60;;;15.60;1.00;;;;;;5022791;28;20454;-80
2022/10/28 02:41:08;;;;;;;10.20;3.40;;;15.80;1.00;;;;;;5023900;28;20463;-79
2022/10/28 02:43:37;;;;;;;5.90;3.77;;;15.80;99.90;;;;;;5022825;28;20555;-80
2022/10/28 02:46:07;;;;;;;3.90;3.57;;;15.80;1.00;;;;;;5024073;28;20516;-80
2022/10/28 02:48:42;;;;;;;6.90;4.20;;;15.80;1.00;;;;;;5023297;28;20507;-80
2022/10/28 02:51:13;;;;;;;7.37;3.43;;;15.80;1.00;;;;;;5026997;28;21299;-79
2022/10/28 02:53:50;;;;;;;4.30;3.00;;;15.70;99.90;;;;;;5027781;28;20579;-80
2022/10/28 02:56:21;;;;;;;9.67;4.00;;;15.70;1.00;;;;;;5020009;28;20823;-79
2022/10/28 02:58:49;;;;;;;6.97;3.97;;;15.60;99.90;;;;;;5024258;28;20548;-80
2022/10/28 03:01:17;;;;;;;5.43;3.30;;;15.60;1.00;;;;;;5023755;28;20573;-80
2022/10/28 03:03:47;;;;;;;8.20;4.57;;;15.50;1.00;;;;;;5027873;28;20485;-80
2022/10/28 03:06:15;;;;;;;6.60;3.80;;;15.40;1.00;;;;;;5027215;28;20470;-80
2022/10/28 03:08:43;;;;;;;5.63;4.03;;;15.50;1.00;;;;;;5023410;28;20568;-80
2022/10/28 03:11:11;;;;;;;7.67;3.87;;;15.50;99.90;;;;;;5026101;28;20461;-80
2022/10/28 03:13:39;;;;;;;7.13;3.70;;;15.60;99.90;;;;;;5022760;28;20486;-80
2022/10/28 03:16:08;;;;;;;5.00;3.83;;;15.60;1.00;;;;;;5024849;28;20952;-81
2022/10/28 03:18:36;;;;;;;4.40;4.00;;;15.60;1.00;;;;;;5027140;28;20434;-80
2022/10/28 03:21:05;;;;;;;5.30;3.80;;;15.60;1.00;;;;;;5028007;28;20453;-80
2022/10/28 03:23:33;;;;;;;5.87;3.90;;;15.80;99.90;;;;;;5027252;28;20521;-79
2022/10/28 03:26:02;;;;;;;7.83;4.40;;;15.90;54.70;;;;;;5023439;28;20482;-79
2022/10/28 03:28:30;;;;;;;5.10;3.80;;;15.90;99.90;;;;;;5025332;28;20487;-79
2022/10/28 03:30:58;;;;;;;5.67;4.00;;;15.90;1.00;;;;;;5025761;28;21223;-79
2022/10/28 03:33:27;;;;;;;6.93;4.13;;;15.80;99.90;;;;;;5023640;28;20976;-80
2022/10/28 03:35:57;;;;;;;5.20;4.20;;;15.90;44.60;;;;;;5024418;28;20460;-80
2022/10/28 03:38:26;;;;;;;7.60;5.00;;;15.80;99.90;;;;;;5025405;28;20463;-79
2022/10/28 03:40:54;;;;;;;9.73;5.63;;;15.80;1.00;;;;;;5022160;28;20559;-79
2022/10/28 03:43:22;;;;;;;4.80;4.03;;;15.90;1.00;;;;;;5019994;28;20473;-80
2022/10/28 03:45:51;;;;;;;4.27;3.70;;;15.90;1.00;;;;;;5025970;28;20465;-80
2022/10/28 03:48:19;;;;;;;10.40;3.80;;;16.00;1.00;;;;;;5019844;28;23785;-80
2022/10/28 03:50:47;;;;;;;6.37;3.80;;;16.10;1.00;;;;;;5027001;28;21298;-81
2022/10/28 03:53:15;;;;;;;6.17;4.10;;;16.20;99.90;;;;;;5026617;28;20514;-79
2022/10/28 03:55:44;;;;;;;6.47;3.37;;;16.30;99.90;;;;;;5023650;28;20576;-80
2022/10/28 03:58:12;;;;;;;7.60;3.70;;;16.40;1.00;;;;;;5025532;28;20461;-80
2022/10/28 04:00:40;;;;;;;5.57;3.70;;;16.40;1.00;;;;;;5023307;28;20447;-79
2022/10/28 04:03:08;;;;;;;6.90;4.07;;;16.40;99.90;;;;;;5019729;28;20474;-79
2022/10/28 04:05:36;;;;;;;4.20;3.80;;;16.50;95.50;;;;;;5021991;28;20500;-80
2022/10/28 04:08:05;;;;;;;5.80;3.77;;;16.50;1.00;;;;;;5021735;28;20546;-80
2022/10/28 04:10:33;;;;;;;5.03;3.70;;;16.60;99.90;;;;;;5022653;28;20890;-80
2022/10/28 04:13:03;;;;;;;3.97;3.00;;;16.70;74.30;;;;;;5016419;28;20487;-81
2022/10/28 04:15:31;;;;;;;4.73;2.90;;;16.80;1.00;;;;;;5023691;28;20557;-80
2022/10/28 04:17:59;;;;;;;3.53;2.77;;;17.10;99.90;;;;;;5018782;28;20561;-80
2022/10/28 04:20:28;;;;;;;5.63;3.80;;;17.20;99.90;;;;;;5029595;28;20451;-81
2022/10/28 04:22:57;;;;;;;4.20;3.10;;;17.40;75.40;;;;;;5031689;28;20545;-79
2022/10/28 04:25:26;;;;;;;3.93;2.87;;;17.50;34.10;;;;;;5031468;28;20452;-79
2022/10/28 04:27:55;;;;;;;4.83;2.70;;;17.50;3.70;;;;;;5032587;28;20462;-80
2022/10/28 04:30:25;;;;;;;4.43;3.03;;;17.50;1.00;;;;;;5031322;28;20537;-81
2022/10/28 04:32:53;;;;;;;4.20;2.47;;;17.70;1.00;;;;;;5028891;28;21101;-81
2022/10/28 04:35:21;;;;;;;6.07;2.90;;;17.70;1.00;;;;;;5035909;28;20482;-82
2022/10/28 04:37:49;;;;;;;4.80;2.77;;;17.60;1.00;;;;;;5033030;28;20524;-81
2022/10/28 04:40:18;;;;;;;4.10;2.80;;;17.80;1.00;;;;;;5034027;28;20463;-80
2022/10/28 04:42:46;;;;;;;5.20;2.40;;;17.70;1.00;;;;;;5029508;28;20496;-80
2022/10/28 04:45:14;;;;;;;3.33;2.27;;;17.70;1.00;;;;;;5035260;28;20472;-80
2022/10/28 04:47:43;;;;;;;3.80;2.40;;;17.80;1.00;;;;;;5033774;28;20461;-82
2022/10/28 04:50:11;;;;;;;2.47;1.83;;;17.80;1.00;;;;;;5032761;28;21032;-81
2022/10/28 04:52:40;;;;;;;4.57;2.87;;;17.80;1.00;;;;;;5026965;28;20495;-80
2022/10/28 04:55:08;;;;;;;3.80;3.30;;;17.80;1.00;;;;;;5027588;28;20605;-81
2022/10/28 04:57:36;;;;;;;4.27;3.50;;;17.70;1.00;;;;;;5035443;28;20551;-80
2022/10/28 05:00:05;;;;;;;4.70;3.30;;;17.50;99.90;;;;;;5031160;28;20455;-81
2022/10/28 05:02:33;;;;;;;5.20;2.80;;;17.30;99.90;;;;;;5034152;28;20534;-81
2022/10/28 05:05:03;;;;;;;3.73;2.80;;;17.20;99.90;;;;;;5028828;28;20452;-80
2022/10/28 05:07:32;;;;;;;7.97;4.07;;;17.10;1.00;;;;;;5027599;28;20470;-81
2022/10/28 05:10:00;;;;;;;3.43;3.07;;;17.10;1.00;;;;;;5029597;28;21009;-81
2022/10/28 05:12:28;;;;;;;6.23;3.30;;;17.00;99.90;;;;;;5023884;28;20479;-83
2022/10/28 05:14:56;;;;;;;3.83;3.53;;;17.00;1.00;;;;;;5015143;28;20535;-81
2022/10/28 05:17:24;;;;;;;5.60;3.70;;;16.90;1.00;;;;;;5021562;28;20487;-81
2022/10/28 05:19:52;;;;;;;5.90;3.93;;;16.60;1.00;;;;;;5031882;28;20455;-81
2022/10/28 05:22:21;;;;;;;8.97;3.97;;;16.70;83.60;;;;;;5035035;28;20973;-80
2022/10/28 05:24:49;;;;;;;4.77;2.83;;;16.70;99.90;;;;;;5030638;28;20489;-81
2022/10/28 05:28:14;;;;;;;3.42;2.42;;;17.10;1.00;;;;;;5042065;27;1287023;-82
2022/10/28 05:30:43;;;;;;;3.07;2.87;;;17.30;1.00;;;;;;5091854;28;20199;-84
2022/10/28 05:33:12;;;;;;;4.90;2.93;;;17.50;1.00;;;;;;5094138;28;20454;-85
2022/10/28 05:35:40;;;;;;;6.10;2.77;;;17.50;1.00;;;;;;5091930;28;20457;-83
2022/10/28 05:38:08;;;;;;;5.67;2.37;;;17.50;1.00;;;;;;5079088;28;20579;-83
2022/10/28 05:40:36;;;;;;;5.33;2.87;;;17.60;1.00;;;;;;5088564;28;20518;-84
2022/10/28 05:43:05;;;;;;;5.00;2.97;;;17.70;1.00;;;;;;5085199;28;20462;-84
2022/10/28 05:45:34;;;;;;;5.90;2.77;;;17.70;1.00;;;;;;5083191;28;20461;-82
2022/10/28 05:48:02;;;;;;;3.97;2.50;;;17.70;1.00;;;;;;5063160;28;20512;-83
2022/10/28 05:50:31;;;;;;;5.63;2.50;;;17.70;1.00;;;;;;5079327;28;20494;-83
2022/10/28 05:52:59;;;;;;;7.80;2.97;;;17.70;1.00;;;;;;5082230;28;20961;-81
2022/10/28 05:55:28;;;;;;;7.60;2.53;;;17.60;1.00;;;;;;5081583;28;20458;-81
2022/10/28 05:57:57;;;;;;;5.30;2.53;;;17.70;1.00;;;;;;5075053;28;20550;-83
2022/10/28 06:00:26;;;;;;;5.20;2.40;;;17.70;1.00;;;;;;5083531;28;20450;-81
2022/10/28 06:03:05;;;;;;;4.93;2.37;;;17.70;1.00;;;;;;5083350;28;20450;-82
2022/10/28 06:05:33;;;;;;;3.20;2.43;;;17.70;1.00;;;;;;5079782;28;20541;-81
2022/10/28 06:08:03;;;;;;;4.20;2.93;;;17.70;1.00;;;;;;5069664;28;20482;-82
2022/10/28 06:10:31;;;;;;;4.90;2.50;;;17.70;99.90;;;;;;5078857;28;20454;-81
2022/10/28 06:13:00;;;;;;;5.27;2.43;;;17.80;99.90;;;;;;5077949;28;21016;-81
2022/10/28 06:15:28;;;;;;;3.83;2.23;;;17.80;99.90;;;;;;5081911;28;20455;-82
2022/10/28 06:17:56;;;;;;;4.90;2.17;;;17.80;99.90;;;;;;5079409;28;20465;-80
2022/10/28 06:20:26;;;;;;;3.17;2.03;;;17.80;99.90;;;;;;5078640;28;20458;-81
2022/10/28 06:22:55;;;;;;;3.40;2.53;;;17.90;99.90;;;;;;5082409;28;20457;-83
2022/10/28 06:25:25;;;;;;;2.30;2.10;;;17.90;99.90;;;;;;5079809;28;20540;-81
2022/10/28 06:27:54;;;;;;;2.30;2.13;;;17.90;99.90;;;;;;5078249;28;20494;-81
2022/10/28 06:30:23;;;;;;;4.13;1.90;;;17.90;99.90;;;;;;5082910;28;20458;-83
2022/10/28 06:32:51;;;;;;;2.43;2.10;;;18.00;99.90;;;;;;5083670;28;20512;-83
2022/10/28 06:35:19;;;;;;;4.90;2.33;;;17.90;99.90;;;;;;5080813;28;20941;-82
2022/10/28 06:37:53;;;;;;;12.70;2.90;;;17.90;99.90;;;;;;5074516;28;20884;-82
2022/10/28 06:40:22;;;;;;;5.10;2.10;;;17.90;99.90;;;;;;5067651;28;20459;-82
2022/10/28 06:42:57;;;;;;;6.13;2.33;;;17.90;99.90;;;;;;5067802;28;20485;-80
2022/10/28 06:45:25;;;;;;;2.37;1.90;;;17.90;99.90;;;;;;5069208;28;20460;-81
2022/10/28 06:47:57;;;;;;;6.40;2.37;;;18.00;99.90;;;;;;5063844;28;20561;-83
2022/10/28 06:50:26;;;;;;;2.73;2.20;;;18.10;99.90;;;;;;5069665;28;20454;-80
2022/10/28 06:52:57;;;;;;;2.73;1.77;;;18.00;99.90;;;;;;5071858;28;20474;-81
2022/10/28 06:55:26;;;;;;;5.60;2.50;;;18.10;99.90;;;;;;5066041;28;20454;-82
2022/10/28 06:57:58;;;;;;;6.77;2.53;;;18.00;99.90;;;;;;5065632;28;20463;-80
2022/10/28 07:00:26;;;;;;;5.07;2.57;;;18.10;99.90;;;;;;5065448;28;20458;-84
2022/10/28 07:02:55;;;;;;;3.23;2.37;;;18.10;99.90;;;;;;5063287;28;20454;-85
2022/10/28 07:05:25;;;;;;;2.90;2.20;;;18.10;99.90;;;;;;5058251;28;20452;-86
2022/10/28 07:07:53;;;;;;;2.93;2.47;;;18.10;99.90;;;;;;5061559;28;20515;-86
2022/10/28 07:10:24;;;;;;;3.77;2.80;;;17.80;1.00;;;;;;5062309;28;20454;-84
2022/10/28 07:12:52;;;;;;;4.37;2.47;;;17.70;1.00;;;;;;5063057;28;21345;-86
2022/10/28 07:15:21;;;;;;;4.23;2.57;;;17.70;1.00;;;;;;5057024;28;20459;-84
2022/10/28 07:17:53;;;;;;;2.17;1.97;;;17.80;1.00;;;;;;5040519;28;20474;-85
2022/10/28 07:20:22;;;;;;;7.37;2.37;;;17.80;1.00;;;;;;5052992;28;20459;-86
2022/10/28 07:22:55;;;;;;;2.73;1.80;;;17.90;99.90;;;;;;5057478;28;20459;-87
2022/10/28 07:25:26;;;;;;;2.40;2.20;;;18.00;99.90;;;;;;5054485;28;20459;-84
2022/10/28 07:27:56;;;;;;;8.70;2.17;;;18.10;99.90;;;;;;5058193;28;20849;-85
2022/10/28 07:30:24;;;;;;;3.67;2.20;;;18.10;99.90;;;;;;5068490;28;20459;-85
2022/10/28 07:32:53;;;;;;;2.30;2.10;;;18.20;99.90;;;;;;5069430;28;20471;-86
2022/10/28 07:35:21;;;;;;;4.90;2.37;;;18.20;99.90;;;;;;5059403;28;20466;-86
2022/10/28 07:37:49;;;;;;;7.27;2.13;;;18.30;99.90;;;;;;5062176;28;20474;-85
2022/10/28 07:40:18;;;;;;;2.60;1.77;;;18.30;99.90;;;;;;5060413;28;20550;-85
2022/10/28 07:42:47;;;;;;;4.07;1.80;;;18.30;99.90;;;;;;5044463;28;20486;-86
2022/10/28 07:45:16;;;;;;;7.03;2.17;;;18.40;99.90;;;;;;5043456;28;20462;-85
2022/10/28 07:47:45;;;;;;;2.80;1.80;;;18.40;99.90;;;;;;5057683;28;20954;-85
2022/10/28 07:50:13;;;;;;;3.00;1.77;;;18.40;99.90;;;;;;5058632;28;20474;-86
2022/10/28 07:52:41;;;;;;;4.30;2.23;;;18.50;99.90;;;;;;5043684;28;20460;-84
2022/10/28 07:55:10;;;;;;;4.73;1.83;;;18.60;99.90;;;;;;5068367;28;20458;-85
2022/10/28 07:57:39;;;;;;;4.80;2.20;;;18.50;99.90;;;;;;5062389;28;20482;-84
2022/10/28 08:00:10;;;;;;;3.60;2.30;;;18.50;99.90;;;;;;5064685;28;20557;-85
2022/10/28 08:02:38;;;;;;;2.93;2.20;;;18.50;99.90;;;;;;5063915;28;20455;-85
2022/10/28 08:05:07;;;;;;;3.83;3.43;;;18.30;1.00;;;;;;5064350;28;20484;-84
2022/10/28 08:07:35;;;;;;;10.27;3.10;;;18.20;1.00;;;;;;5063609;28;21243;-84
2022/10/28 08:10:06;;;;;;;7.90;3.00;;;18.20;1.00;;;;;;5038400;28;20462;-87
2022/10/28 08:12:34;;;;;;;12.20;3.90;;;18.10;1.00;;;;;;5056599;28;20457;-85
2022/10/28 08:15:03;;;;;;;8.73;3.77;;;18.00;1.00;;;;;;5042107;28;20446;-86
2022/10/28 08:17:33;;;;;;;5.70;2.80;;;18.10;19.10;;;;;;5054080;28;21045;-82
2022/10/28 08:20:01;;;;;;;13.80;5.10;;;18.00;2.90;;;;;;5054891;28;21313;-85
2022/10/28 08:22:29;;;;;;;11.20;4.50;;;18.10;99.90;;;;;;5050317;28;20533;-81
2022/10/28 08:24:57;;;;;;;9.10;3.50;;;18.00;99.90;;;;;;5057228;28;20489;-83
2022/10/28 08:27:25;;;;;;;8.00;3.83;;;18.10;99.90;;;;;;5053367;28;20486;-82
2022/10/28 08:29:53;;;;;;;9.50;3.30;;;18.00;99.90;;;;;;5055062;28;20465;-82
2022/10/28 08:32:22;;;;;;;5.60;3.97;;;18.00;99.90;;;;;;5062316;28;20455;-82
2022/10/28 08:34:51;;;;;;;11.37;3.63;;;18.00;99.90;;;;;;5061459;28;20459;-83
2022/10/28 08:37:19;;;;;;;6.80;3.60;;;18.10;99.90;;;;;;5059033;28;20492;-80
2022/10/28 08:39:47;;;;;;;4.80;3.67;;;18.20;59.40;;;;;;5032609;28;20574;-81
2022/10/28 08:42:29;;;;;;;15.83;4.17;;;18.20;1.00;;;;;;5013817;28;20483;-80
2022/10/28 08:45:12;;;;;;;6.93;3.60;;;18.20;96.90;;;;;;5011717;28;20546;-82
2022/10/28 08:47:51;;;;;;;9.00;2.83;;;18.20;96.00;;;;;;5010181;28;20539;-81
2022/10/28 08:50:24;;;;;;;4.77;3.00;;;18.30;99.90;;;;;;5012763;28;20448;-82
2022/10/28 08:52:56;;;;;;;4.23;3.20;;;18.40;1.00;;;;;;5017446;28;20469;-83
2022/10/28 08:55:29;;;;;;;7.03;3.00;;;18.60;1.00;;;;;;5013193;28;20457;-82
2022/10/28 08:58:02;;;;;;;5.73;2.83;;;18.80;1.00;;;;;;5011362;28;20535;-81
2022/10/28 09:00:32;;;;;;;8.70;3.00;;;18.80;1.00;;;;;;5014068;28;20480;-81
2022/10/28 09:03:16;;;;;;;7.90;3.37;;;18.90;1.00;;;;;;5006186;28;20553;-82
2022/10/28 09:05:48;;;;;;;4.43;2.70;;;19.00;1.00;;;;;;5010502;28;20448;-81
2022/10/28 09:08:22;;;;;;;4.50;2.53;;;19.10;1.00;;;;;;5010040;28;20469;-80
2022/10/28 09:11:33;;;;;;;9.73;2.80;;;19.30;99.90;;;;;;5011012;28;21269;-81
2022/10/28 09:14:13;;;;;;;9.90;3.10;;;19.40;99.90;;;;;;4970485;28;20457;-81
2022/10/28 09:16:46;;;;;;;4.03;2.70;;;19.50;99.90;;;;;;5011954;28;21252;-83
2022/10/28 09:19:27;;;;;;;7.97;2.97;;;19.60;99.90;;;;;;5007860;28;20502;-81
2022/10/28 09:22:07;;;;;;;3.63;2.80;;;19.50;1.00;;;;;;5010769;28;21127;-82
2022/10/28 09:24:45;;;;;;;5.60;3.50;;;19.40;1.00;;;;;;5010360;28;20467;-81
2022/10/28 09:27:24;;;;;;;6.63;2.70;;;19.40;1.00;;;;;;5011844;28;20551;-81
2022/10/28 09:30:00;;;;;;;4.23;2.30;;;19.30;1.00;;;;;;5016266;28;20554;-82
2022/10/28 09:32:39;;;;;;;4.50;2.77;;;19.30;99.90;;;;;;5016137;28;20497;-82
2022/10/28 09:35:13;;;;;;;3.13;2.73;;;19.50;99.90;;;;;;5012402;28;20515;-80
2022/10/28 09:37:45;;;;;;;2.90;2.03;;;20.00;99.90;;;;;;5011130;28;20592;-81
2022/10/28 09:40:19;;;;;;;2.80;2.10;;;20.50;99.90;;;;;;5011311;28;20813;-81
2022/10/28 09:42:54;;;;;;;5.77;2.50;;;20.60;99.90;;;;;;5013455;28;20449;-83
2022/10/28 09:45:27;;;;;;;4.53;2.57;;;21.10;99.90;;;;;;5015200;28;21310;-82
2022/10/28 09:48:00;;;;;;;4.33;2.20;;;21.50;99.90;;;;;;5013442;28;21271;-81
2022/10/28 09:50:31;;;;;;;6.10;2.07;;;22.10;99.90;;;;;;5017804;28;20475;-80
2022/10/28 09:53:06;;;;;;;5.27;1.93;;;22.50;99.90;;;;;;5020933;28;20620;-82
2022/10/28 09:55:34;;;;;;;3.97;2.10;;;22.10;99.90;;;;;;5018241;28;20453;-81
2022/10/28 09:58:03;;;;;;;5.10;2.20;;;21.90;99.90;;;;;;5016536;28;21005;-80
2022/10/28 10:00:32;;;;;;;3.10;1.80;;;21.80;99.90;;;;;;5008743;28;20460;-82
2022/10/28 10:03:00;;;;;;;6.33;2.13;;;22.00;99.90;;;;;;5011447;28;20456;-82
2022/10/28 10:05:29;;;;;;;4.70;1.60;;;21.90;99.90;;;;;;5015367;28;20523;-82
2022/10/28 10:08:03;;;;;;;2.63;1.60;;;21.70;99.90;;;;;;5014554;28;20488;-83
2022/10/28 10:10:36;;;;;;;2.10;1.70;;;21.40;99.90;;;;;;5014959;28;20480;-81
2022/10/28 10:13:06;;;;;;;4.00;1.80;;;21.30;99.90;;;;;;5014871;28;20520;-83
2022/10/28 10:15:38;;;;;;;2.43;2.23;;;21.40;99.90;;;;;;5015033;28;20837;-85
2022/10/28 10:18:11;;;;;;;2.47;2.10;;;21.30;99.90;;;;;;5016391;28;20499;-82
2022/10/28 10:20:48;;;;;;;6.40;1.80;;;21.20;99.90;;;;;;5016243;28;20463;-82
2022/10/28 10:23:35;;;;;;;5.77;2.17;;;21.10;99.90;;;;;;5001922;28;20565;-83
2022/10/28 10:26:05;;;;;;;5.63;2.07;;;21.30;99.90;;;;;;5010768;28;20468;-81
2022/10/28 10:28:43;;;;;;;4.93;2.07;;;21.20;99.90;;;;;;5011009;28;20446;-81
2022/10/28 10:31:19;;;;;;;5.47;1.80;;;21.10;99.90;;;;;;5015745;28;20459;-81
2022/10/28 10:33:50;;;;;;;3.00;2.10;;;21.30;99.90;;;;;;5014028;28;20562;-82
2022/10/28 10:36:22;;;;;;;6.60;2.10;;;21.30;99.90;;;;;;5020401;28;21008;-82
2022/10/28 10:38:53;;;;;;;7.97;2.23;;;21.10;99.90;;;;;;5023851;28;20437;-82
2022/10/28 10:41:43;;;;;;;3.20;1.97;;;21.00;99.90;;;;;;5020228;28;20488;-83
2022/10/28 10:44:33;;;;;;;2.27;2.07;;;21.00;99.90;;;;;;5013477;28;20462;-81
2022/10/28 10:47:20;;;;;;;3.30;1.87;;;21.10;99.90;;;;;;5014112;28;20503;-82
2022/10/28 10:49:50;;;;;;;3.67;2.00;;;21.20;99.90;;;;;;5014522;28;20474;-83
2022/10/28 10:52:22;;;;;;;7.20;2.67;;;21.40;99.90;;;;;;5012550;28;20889;-82
2022/10/28 10:55:06;;;;;;;3.53;2.40;;;21.80;99.90;;;;;;5012832;28;20463;-81
2022/10/28 10:57:35;;;;;;;4.60;2.00;;;21.70;99.90;;;;;;5015204;28;20492;-81
2022/10/28 11:00:04;;;;;;;9.47;2.80;;;22.10;99.90;;;;;;5013345;28;21271;-80
2022/10/28 11:02:36;;;;;;;4.60;2.60;;;22.30;99.90;;;;;;5016395;28;20480;-82
2022/10/28 11:05:08;;;;;;;10.47;3.27;;;22.70;99.90;;;;;;5019457;28;20480;-82
2022/10/28 11:07:38;;;;;;;4.73;2.10;;;25.00;99.90;;;;;;5016789;28;20535;-84
2022/10/28 11:10:21;;;;;;;8.73;2.20;;;24.00;99.90;;;;;;5015222;28;20511;-82
2022/10/28 11:12:55;;;;;;;12.10;2.57;;;23.20;99.90;;;;;;5020102;28;20472;-81
2022/10/28 11:15:27;;;;;;;4.73;2.37;;;22.90;99.90;;;;;;5017123;28;20461;-82
2022/10/28 11:17:57;;;;;;;5.63;2.50;;;22.50;99.90;;;;;;5014857;28;20559;-82
2022/10/28 11:20:29;;;;;;;4.57;2.17;;;22.30;99.90;;;;;;5016623;28;20472;-82
2022/10/28 11:23:10;;;;;;;4.90;2.00;;;22.10;99.90;;;;;;5014995;28;20453;-82
2022/10/28 11:25:43;;;;;;;5.07;2.00;;;22.10;99.90;;;;;;5014129;28;20456;-81
2022/10/28 11:28:35;;;;;;;8.23;2.43;;;22.30;99.90;;;;;;5015473;28;20476;-81
2022/10/28 11:31:17;;;;;;;6.70;2.50;;;22.20;99.90;;;;;;5014814;28;20476;-83
2022/10/28 11:33:53;;;;;;;4.27;2.37;;;22.10;99.90;;;;;;5017233;28;20457;-82
2022/10/28 11:36:29;;;;;;;5.27;3.27;;;22.10;99.90;;;;;;5017757;28;20486;-82
2022/10/28 11:39:20;;;;;;;7.13;2.53;;;22.10;99.90;;;;;;5014667;28;20601;-80
2022/10/28 11:42:00;;;;;;;9.90;2.87;;;22.10;99.90;;;;;;5018874;28;20543;-82
2022/10/28 11:44:41;;;;;;;3.97;2.43;;;22.10;99.90;;;;;;5019774;28;20456;-81
2022/10/28 11:47:30;;;;;;;2.60;2.30;;;22.00;99.90;;;;;;5021054;28;20924;-81
2022/10/28 11:50:22;;;;;;;5.30;2.43;;;21.90;99.90;;;;;;5017776;28;20476;-80
2022/10/28 11:53:12;;;;;;;4.33;2.60;;;21.90;99.90;;;;;;5013756;28;20653;-80
2022/10/28 11:55:47;;;;;;;8.27;2.47;;;21.80;99.90;;;;;;5018144;28;20525;-80
2022/10/28 11:58:28;;;;;;;6.53;2.10;;;21.90;99.90;;;;;;5016940;28;21001;-79
2022/10/28 12:01:12;;;;;;;3.20;2.37;;;21.90;99.90;;;;;;5010980;28;20464;-79
2022/10/28 12:04:01;;;;;;;7.83;2.37;;;21.90;99.90;;;;;;5013100;28;20460;-79
2022/10/28 12:06:47;;;;;;;5.77;2.37;;;21.90;99.90;;;;;;5006937;28;20479;-80
2022/10/28 12:09:25;;;;;;;4.67;2.10;;;21.90;99.90;;;;;;5009032;28;20460;-81
2022/10/28 12:12:09;;;;;;;2.87;2.13;;;21.80;99.90;;;;;;5009547;28;20486;-80
2022/10/28 12:14:46;;;;;;;4.30;2.40;;;21.90;99.90;;;;;;5007699;28;20542;-80
2022/10/28 12:17:19;;;;;;;6.37;1.93;;;22.10;99.90;;;;;;5021338;28;20587;-79
2022/10/28 12:19:54;;;;;;;4.23;2.40;;;22.30;99.90;;;;;;5017288;28;20515;-80
2022/10/28 12:22:27;;;;;;;6.47;2.70;;;22.60;99.90;;;;;;5018254;28;20455;-80
2022/10/28 12:24:57;;;;;;;4.77;2.57;;;22.80;99.90;;;;;;5019441;28;20948;-80
2022/10/28 12:27:29;;;;;;;2.83;2.03;;;22.90;99.90;;;;;;5015164;28;20484;-78
2022/10/28 12:30:06;;;;;;;4.27;2.80;;;23.10;99.90;;;;;;5018966;28;20567;-79
2022/10/28 12:32:36;;;;;;;4.67;2.03;;;23.10;99.90;;;;;;5012942;28;20497;-81
2022/10/28 12:35:07;;;;;;;5.67;3.30;;;23.00;99.90;;;;;;5015282;28;20467;-81
2022/10/28 12:37:41;;;;;;;5.17;2.37;;;23.00;99.90;;;;;;5012680;28;20523;-80
2022/10/28 12:40:19;;;;;;;2.23;2.03;;;23.00;99.90;;;;;;5014280;28;20464;-79
2022/10/28 12:42:53;;;;;;;4.80;1.87;;;23.10;99.90;;;;;;5018770;28;20494;-80
2022/10/28 12:45:24;;;;;;;4.57;2.40;;;23.20;99.90;;;;;;5015468;28;20959;-80
2022/10/28 12:47:59;;;;;;;2.87;1.80;;;23.20;99.90;;;;;;5016365;28;20477;-80
2022/10/28 12:50:33;;;;;;;3.50;2.40;;;23.10;99.90;;;;;;5014366;28;20472;-79
2022/10/28 12:53:15;;;;;;;6.13;2.83;;;23.20;99.90;;;;;;5017260;28;20991;-80
2022/10/28 12:55:49;;;;;;;3.37;2.43;;;23.10;99.90;;;;;;5015917;28;20476;-80
2022/10/28 12:58:23;;;;;;;4.53;2.00;;;23.10;99.90;;;;;;5021056;28;20440;-81
2022/10/28 13:00:56;;;;;;;3.33;2.10;;;23.00;99.90;;;;;;5015375;28;20453;-80
2022/10/28 13:03:25;;;;;;;3.83;1.87;;;23.10;99.90;;;;;;5015575;28;20453;-79
2022/10/28 13:06:05;;;;;;;7.17;2.17;;;23.20;99.90;;;;;;5017358;28;21262;-79
2022/10/28 13:08:57;;;;;;;6.73;2.30;;;23.40;99.90;;;;;;5019322;28;20537;-79
2022/10/28 13:12:03;;;;;;;3.40;1.90;;;23.40;99.90;;;;;;5011216;28;20588;-80
2022/10/28 13:15:13;;;;;;;3.87;2.00;;;23.60;99.90;;;;;;5016407;28;20519;-81
2022/10/28 13:17:53;;;;;;;3.93;2.13;;;23.60;99.90;;;;;;4996908;28;21142;-80
2022/10/28 13:20:31;;;;;;;4.87;2.17;;;23.50;99.90;;;;;;5016553;28;20955;-80